Time;durP1;ratioP1;P1;durP2;ratioP2;P2;SDS_P1;SDS_P2;PMS_P1;PMS_P2;Temp;Humidity;BMP_temperature;BMP_pressure;BME280_temperature;BME280_humidity;BME280_pressure;Samples;Min_cycle;Max_cycle;Signal;HPM_P1;HPM_P2
2021/10/04 00:02:36;;;;;;;15.90;12.32;;;;;;;;;;6272188;28;20105;-69
2021/10/04 00:05:38;;;;;;;17.03;13.23;;;;;;;;;;6276162;28;20037;-70
2021/10/04 00:08:39;;;;;;;17.75;12.80;;;;;;;;;;6284587;28;20353;-68
2021/10/04 00:11:41;;;;;;;16.45;11.88;;;;;;;;;;6274665;28;20701;-68
2021/10/04 00:14:42;;;;;;;17.90;13.25;;;;;;;;;;6286388;28;20618;-68
2021/10/04 00:17:46;;;;;;;17.23;12.68;;;;;;;;;;6264537;28;20041;-68
2021/10/04 00:20:48;;;;;;;16.42;12.50;;;;;;;;;;6277209;28;20049;-68
2021/10/04 00:23:49;;;;;;;19.35;12.88;;;;;;;;;;6287459;28;20049;-68
2021/10/04 00:26:51;;;;;;;17.85;12.07;;;;;;;;;;6277688;28;20048;-68
2021/10/04 00:29:52;;;;;;;17.98;12.27;;;;;;;;;;6288432;28;20109;-69
2021/10/04 00:32:55;;;;;;;16.88;12.35;;;;;;;;;;6272514;28;20041;-68
2021/10/04 00:35:57;;;;;;;18.35;13.02;;;;;;;;;;6272555;28;20175;-68
2021/10/04 00:38:59;;;;;;;20.30;13.00;;;;;;;;;;6286134;28;20072;-68
2021/10/04 00:42:01;;;;;;;18.52;12.40;;;;;;;;;;6273363;28;20049;-69
2021/10/04 00:45:03;;;;;;;19.58;12.80;;;;;;;;;;6279286;28;20412;-71
2021/10/04 00:48:06;;;;;;;19.88;12.98;;;;;;;;;;6272659;28;20045;-69
2021/10/04 00:51:08;;;;;;;15.95;12.23;;;;;;;;;;6276536;28;20500;-69
2021/10/04 00:54:10;;;;;;;15.98;12.20;;;;;;;;;;6288176;28;20078;-69
2021/10/04 00:57:11;;;;;;;18.05;12.63;;;;;;;;;;6284162;28;20194;-69
2021/10/04 01:00:16;;;;;;;17.38;12.80;;;;;;;;;;6287324;28;20055;-70
2021/10/04 01:03:19;;;;;;;17.80;13.43;;;;;;;;;;6272287;28;20135;-69
2021/10/04 01:06:21;;;;;;;16.93;13.37;;;;;;;;;;6280042;28;20040;-69
2021/10/04 01:09:24;;;;;;;19.15;13.48;;;;;;;;;;6282119;28;21115;-69
2021/10/04 01:12:25;;;;;;;16.98;12.52;;;;;;;;;;6278257;28;20412;-68
2021/10/04 01:15:27;;;;;;;18.27;13.43;;;;;;;;;;6280486;28;20037;-69
2021/10/04 01:18:30;;;;;;;18.42;13.40;;;;;;;;;;6278704;28;20130;-68
2021/10/04 01:21:33;;;;;;;17.37;14.17;;;;;;;;;;6277987;28;20040;-68
2021/10/04 01:24:35;;;;;;;22.15;14.48;;;;;;;;;;6286565;28;20512;-70
2021/10/04 01:27:37;;;;;;;21.63;14.88;;;;;;;;;;6278908;28;20159;-69
2021/10/04 01:30:38;;;;;;;16.88;13.65;;;;;;;;;;6280398;28;20044;-69
2021/10/04 01:33:40;;;;;;;19.27;13.82;;;;;;;;;;6280429;28;20127;-72
2021/10/04 01:36:43;;;;;;;20.23;13.77;;;;;;;;;;6275312;28;20131;-68
2021/10/04 01:39:44;;;;;;;21.80;14.43;;;;;;;;;;6284793;28;20109;-70
2021/10/04 01:42:47;;;;;;;22.42;15.10;;;;;;;;;;6280703;28;20459;-69
2021/10/04 01:45:49;;;;;;;24.27;15.25;;;;;;;;;;6272894;28;20247;-69
2021/10/04 01:48:50;;;;;;;17.30;13.80;;;;;;;;;;6280707;28;20049;-69
2021/10/04 01:51:53;;;;;;;22.35;14.60;;;;;;;;;;6277635;28;20194;-69
2021/10/04 01:54:55;;;;;;;21.57;14.83;;;;;;;;;;6286411;28;20044;-69
2021/10/04 01:57:57;;;;;;;22.77;15.23;;;;;;;;;;6282353;28;20163;-69
2021/10/04 02:00:58;;;;;;;21.00;15.25;;;;;;;;;;6275389;28;20450;-69
2021/10/04 02:04:00;;;;;;;23.92;15.18;;;;;;;;;;6282040;28;20048;-69
2021/10/04 02:07:03;;;;;;;20.88;15.32;;;;;;;;;;6281414;28;20511;-69
2021/10/04 02:10:06;;;;;;;22.73;15.70;;;;;;;;;;6290628;28;20375;-71
2021/10/04 02:13:09;;;;;;;23.00;15.05;;;;;;;;;;6287173;28;20077;-69
2021/10/04 02:16:11;;;;;;;20.88;14.85;;;;;;;;;;6282205;28;20052;-69
2021/10/04 02:19:13;;;;;;;20.88;15.55;;;;;;;;;;6288936;28;20052;-68
2021/10/04 02:22:16;;;;;;;20.27;16.10;;;;;;;;;;6286054;28;20044;-68
2021/10/04 02:25:18;;;;;;;24.20;15.87;;;;;;;;;;6287469;28;20046;-74
2021/10/04 02:28:20;;;;;;;23.27;15.52;;;;;;;;;;6286167;28;20455;-69
2021/10/04 02:31:21;;;;;;;21.83;15.85;;;;;;;;;;6281635;28;20068;-69
2021/10/04 02:34:23;;;;;;;22.42;16.23;;;;;;;;;;6292194;28;20761;-69
2021/10/04 02:37:26;;;;;;;22.20;16.05;;;;;;;;;;6281468;28;20055;-71
2021/10/04 02:40:28;;;;;;;21.92;16.08;;;;;;;;;;6285246;28;20126;-69
2021/10/04 02:43:30;;;;;;;23.38;16.35;;;;;;;;;;6290365;28;20055;-69
2021/10/04 02:46:32;;;;;;;22.17;16.00;;;;;;;;;;6285741;28;20182;-72
2021/10/04 02:49:33;;;;;;;23.05;16.92;;;;;;;;;;6289085;28;20040;-71
2021/10/04 02:52:36;;;;;;;20.98;15.90;;;;;;;;;;6283483;28;20543;-69
2021/10/04 02:55:38;;;;;;;22.52;16.92;;;;;;;;;;6282941;28;20148;-71
2021/10/04 02:58:40;;;;;;;27.17;16.52;;;;;;;;;;6294979;28;20496;-69
2021/10/04 03:01:42;;;;;;;22.63;16.05;;;;;;;;;;6282811;28;20052;-68
2021/10/04 03:04:43;;;;;;;22.60;16.77;;;;;;;;;;6291555;28;20381;-69
2021/10/04 03:07:46;;;;;;;22.40;16.17;;;;;;;;;;6277597;28;20301;-69
2021/10/04 03:10:48;;;;;;;25.35;15.30;;;;;;;;;;6288775;28;20135;-69
2021/10/04 03:13:50;;;;;;;22.20;15.65;;;;;;;;;;6287905;28;20515;-68
2021/10/04 03:16:52;;;;;;;21.15;15.38;;;;;;;;;;6279976;28;20101;-69
2021/10/04 03:19:53;;;;;;;24.27;15.95;;;;;;;;;;6287172;28;20178;-69
2021/10/04 03:22:56;;;;;;;23.25;15.40;;;;;;;;;;6275179;28;20041;-69
2021/10/04 03:25:58;;;;;;;22.55;16.52;;;;;;;;;;6285656;28;20037;-69
2021/10/04 03:28:59;;;;;;;22.55;16.20;;;;;;;;;;6290670;28;20135;-69
2021/10/04 03:32:01;;;;;;;23.30;15.57;;;;;;;;;;6283571;28;20058;-69
2021/10/04 03:35:03;;;;;;;23.30;15.82;;;;;;;;;;6290458;28;20186;-68
2021/10/04 03:38:06;;;;;;;21.52;15.98;;;;;;;;;;6286563;28;20037;-69
2021/10/04 03:41:07;;;;;;;22.13;15.27;;;;;;;;;;6285171;28;20149;-68
2021/10/04 03:44:09;;;;;;;24.85;16.45;;;;;;;;;;6292813;28;20120;-69
2021/10/04 03:47:11;;;;;;;25.98;16.88;;;;;;;;;;6285164;28;20147;-70
2021/10/04 03:50:14;;;;;;;28.67;17.52;;;;;;;;;;6287761;28;20074;-73
2021/10/04 03:53:17;;;;;;;27.25;17.73;;;;;;;;;;6281669;28;20194;-69
2021/10/04 03:56:18;;;;;;;25.37;17.53;;;;;;;;;;6287494;28;20041;-70
2021/10/04 03:59:20;;;;;;;23.67;16.98;;;;;;;;;;6286447;28;20792;-68
2021/10/04 04:02:21;;;;;;;21.65;16.05;;;;;;;;;;6279810;28;20040;-69
2021/10/04 04:05:23;;;;;;;24.98;17.50;;;;;;;;;;6283187;28;20136;-71
2021/10/04 04:08:26;;;;;;;23.60;17.63;;;;;;;;;;6289677;28;20041;-69
2021/10/04 04:11:28;;;;;;;29.85;19.85;;;;;;;;;;6285690;28;20075;-72
2021/10/04 04:14:29;;;;;;;26.38;17.88;;;;;;;;;;6286200;28;20052;-69
2021/10/04 04:17:31;;;;;;;24.67;18.08;;;;;;;;;;6274667;28;20069;-69
2021/10/04 04:20:32;;;;;;;27.98;18.88;;;;;;;;;;6274102;28;20113;-71
2021/10/04 04:23:35;;;;;;;27.33;19.70;;;;;;;;;;6284446;28;20051;-70
2021/10/04 04:26:37;;;;;;;30.63;20.10;;;;;;;;;;6285916;28;20752;-69
2021/10/04 04:29:39;;;;;;;28.20;18.52;;;;;;;;;;6287120;28;20053;-69
2021/10/04 04:32:42;;;;;;;25.95;18.02;;;;;;;;;;6274161;28;20053;-70
2021/10/04 04:35:43;;;;;;;28.48;20.50;;;;;;;;;;6281958;28;20623;-69
2021/10/04 04:38:46;;;;;;;29.25;19.42;;;;;;;;;;6280442;28;20052;-69
2021/10/04 04:41:48;;;;;;;27.03;19.17;;;;;;;;;;6272629;28;20135;-69
2021/10/04 04:44:49;;;;;;;28.25;19.88;;;;;;;;;;6288768;28;20134;-72
2021/10/04 04:47:51;;;;;;;29.92;19.30;;;;;;;;;;6275509;28;20361;-73
2021/10/04 04:50:53;;;;;;;25.17;19.13;;;;;;;;;;6276612;28;20032;-69
2021/10/04 04:53:56;;;;;;;27.83;19.08;;;;;;;;;;6282936;28;20121;-69
2021/10/04 04:57:00;;;;;;;28.55;19.33;;;;;;;;;;6276137;28;20048;-69
2021/10/04 05:00:03;;;;;;;24.75;18.17;;;;;;;;;;6283761;28;20064;-69
2021/10/04 05:03:06;;;;;;;29.58;19.30;;;;;;;;;;6274329;28;20055;-71
2021/10/04 05:06:08;;;;;;;27.10;18.55;;;;;;;;;;6279898;28;20519;-69
2021/10/04 05:09:11;;;;;;;25.35;18.35;;;;;;;;;;6285847;28;20045;-69
2021/10/04 05:12:12;;;;;;;30.75;18.75;;;;;;;;;;6277332;28;20053;-69
2021/10/04 05:15:14;;;;;;;23.75;18.30;;;;;;;;;;6286429;28;20193;-71
2021/10/04 05:18:16;;;;;;;24.15;17.60;;;;;;;;;;6279371;28;20044;-69
2021/10/04 05:21:17;;;;;;;24.55;18.27;;;;;;;;;;6276945;28;20041;-70
2021/10/04 05:24:20;;;;;;;25.98;17.90;;;;;;;;;;6284261;28;20127;-69
2021/10/04 05:27:22;;;;;;;28.95;19.05;;;;;;;;;;6270192;28;20036;-69
2021/10/04 05:30:24;;;;;;;24.38;18.00;;;;;;;;;;6278351;28;20370;-72
2021/10/04 05:33:25;;;;;;;26.50;18.63;;;;;;;;;;6277454;28;20517;-69
2021/10/04 05:36:27;;;;;;;24.80;18.25;;;;;;;;;;6265106;28;20143;-69
2021/10/04 05:39:30;;;;;;;26.50;17.92;;;;;;;;;;6281068;28;20098;-69
2021/10/04 05:42:32;;;;;;;23.93;17.83;;;;;;;;;;6278549;28;20131;-68
2021/10/04 05:45:34;;;;;;;24.33;18.50;;;;;;;;;;6283000;28;20086;-72
2021/10/04 05:48:36;;;;;;;24.75;17.88;;;;;;;;;;6292837;28;20135;-69
2021/10/04 05:51:38;;;;;;;26.05;17.80;;;;;;;;;;6283340;28;20059;-70
2021/10/04 05:54:41;;;;;;;27.90;18.63;;;;;;;;;;6292058;28;20113;-70
2021/10/04 05:57:44;;;;;;;24.70;17.07;;;;;;;;;;6282051;28;20063;-70
2021/10/04 06:00:45;;;;;;;24.20;17.73;;;;;;;;;;6280734;28;20448;-73
2021/10/04 06:03:47;;;;;;;25.05;17.88;;;;;;;;;;6284976;28;20037;-69
2021/10/04 06:06:48;;;;;;;24.90;17.75;;;;;;;;;;6285669;28;20121;-72
2021/10/04 06:09:52;;;;;;;25.27;17.38;;;;;;;;;;6286184;28;20040;-70
2021/10/04 06:12:54;;;;;;;;;;;;;;;;;;6285270;28;20060;-69
2021/10/04 06:15:55;;;;;;;28.70;16.75;;;;;;;;;;6279244;28;19921;-71
2021/10/04 06:18:57;;;;;;;30.80;17.73;;;;;;;;;;6289228;28;20043;-71
2021/10/04 06:21:59;;;;;;;31.60;19.02;;;;;;;;;;6281725;28;20044;-70
2021/10/04 06:25:02;;;;;;;26.63;17.55;;;;;;;;;;6288575;28;20093;-70
2021/10/04 06:28:04;;;;;;;27.38;19.38;;;;;;;;;;6285478;28;20072;-70
2021/10/04 06:31:05;;;;;;;27.15;18.88;;;;;;;;;;6280122;28;20105;-75
2021/10/04 06:34:07;;;;;;;27.60;18.50;;;;;;;;;;6285475;28;20129;-71
2021/10/04 06:37:08;;;;;;;28.75;18.13;;;;;;;;;;6280159;28;20135;-70
2021/10/04 06:40:13;;;;;;;28.73;18.27;;;;;;;;;;6287469;28;20412;-75
2021/10/04 06:43:15;;;;;;;25.58;17.05;;;;;;;;;;6284260;28;20048;-74
2021/10/04 06:46:16;;;;;;;26.23;17.20;;;;;;;;;;6280755;28;20045;-69
2021/10/04 06:49:18;;;;;;;28.23;17.30;;;;;;;;;;6283981;28;20094;-71
2021/10/04 06:52:20;;;;;;;32.85;18.40;;;;;;;;;;6280432;28;20052;-70
2021/10/04 06:55:23;;;;;;;28.38;19.15;;;;;;;;;;6281434;28;20825;-74
2021/10/04 06:58:24;;;;;;;29.67;19.33;;;;;;;;;;6289280;28;21703;-71
2021/10/04 07:01:27;;;;;;;31.77;19.23;;;;;;;;;;6280165;28;20133;-70
2021/10/04 07:04:28;;;;;;;32.65;19.60;;;;;;;;;;6281995;28;20052;-70
2021/10/04 07:07:30;;;;;;;32.38;21.02;;;;;;;;;;6281435;28;20051;-71
2021/10/04 07:10:33;;;;;;;36.83;20.52;;;;;;;;;;6285218;28;20174;-74
2021/10/04 07:13:35;;;;;;;37.07;20.57;;;;;;;;;;6290317;28;20143;-70
2021/10/04 07:16:37;;;;;;;40.00;20.67;;;;;;;;;;6279411;28;20071;-70
2021/10/04 07:19:38;;;;;;;32.83;19.70;;;;;;;;;;6285686;28;20067;-73
2021/10/04 07:22:41;;;;;;;33.47;20.27;;;;;;;;;;6279751;28;20437;-70
2021/10/04 07:25:44;;;;;;;40.22;22.65;;;;;;;;;;6277305;28;20966;-70
2021/10/04 07:28:45;;;;;;;40.85;22.08;;;;;;;;;;6288049;28;20123;-70
2021/10/04 07:31:50;;;;;;;40.88;23.83;;;;;;;;;;6278454;28;20055;-69
2021/10/04 07:34:52;;;;;;;40.20;22.42;;;;;;;;;;6286280;28;20093;-70
2021/10/04 07:37:53;;;;;;;37.22;22.10;;;;;;;;;;6283623;28;20130;-70
2021/10/04 07:40:58;;;;;;;35.13;21.55;;;;;;;;;;6283415;28;20465;-70
2021/10/04 07:43:59;;;;;;;41.55;21.35;;;;;;;;;;6295514;28;20104;-70
2021/10/04 07:47:02;;;;;;;31.30;19.73;;;;;;;;;;6272032;28;20194;-72
2021/10/04 07:50:05;;;;;;;35.10;20.17;;;;;;;;;;6279842;28;20119;-70
2021/10/04 07:53:06;;;;;;;29.73;19.52;;;;;;;;;;6278918;28;20032;-72
2021/10/04 07:56:09;;;;;;;34.75;21.38;;;;;;;;;;6280711;28;20094;-73
2021/10/04 07:59:11;;;;;;;34.77;20.70;;;;;;;;;;6289228;28;20058;-69
2021/10/04 08:02:13;;;;;;;33.05;21.02;;;;;;;;;;6284938;28;20168;-71
2021/10/04 08:05:15;;;;;;;34.42;21.13;;;;;;;;;;6278194;28;20136;-74
2021/10/04 08:08:16;;;;;;;33.20;21.52;;;;;;;;;;6284203;28;20610;-70
2021/10/04 08:11:19;;;;;;;36.47;21.25;;;;;;;;;;6289791;28;20052;-70
2021/10/04 08:14:21;;;;;;;45.97;23.70;;;;;;;;;;6285469;28;20449;-71
2021/10/04 08:17:23;;;;;;;35.70;22.75;;;;;;;;;;6263441;28;20131;-69
2021/10/04 08:20:25;;;;;;;38.00;21.77;;;;;;;;;;6271781;28;20097;-74
2021/10/04 08:23:26;;;;;;;38.58;22.80;;;;;;;;;;6276529;28;20064;-74
2021/10/04 08:26:31;;;;;;;34.85;21.55;;;;;;;;;;6271754;28;20174;-74
2021/10/04 08:29:32;;;;;;;39.55;21.00;;;;;;;;;;6283946;28;20183;-70
2021/10/04 08:32:35;;;;;;;37.95;21.60;;;;;;;;;;6268302;28;20101;-75
2021/10/04 08:35:37;;;;;;;33.00;20.60;;;;;;;;;;6264703;28;20052;-71
2021/10/04 08:38:38;;;;;;;32.28;19.67;;;;;;;;;;6282634;28;20113;-73
2021/10/04 08:41:41;;;;;;;27.63;18.73;;;;;;;;;;6279851;28;20070;-70
2021/10/04 08:44:43;;;;;;;31.47;19.13;;;;;;;;;;6282414;28;20053;-74
2021/10/04 08:47:46;;;;;;;35.47;19.63;;;;;;;;;;6268953;28;20089;-71
2021/10/04 08:50:48;;;;;;;;;;;;;;;;;;6277195;28;20086;-69
2021/10/04 08:53:50;;;;;;;29.05;17.77;;;;;;;;;;6278762;28;20045;-70
2021/10/04 08:56:53;;;;;;;29.48;19.42;;;;;;;;;;6274572;28;20045;-69
2021/10/04 08:59:55;;;;;;;30.45;18.67;;;;;;;;;;6279814;28;20043;-70
2021/10/04 09:03:01;;;;;;;37.53;20.17;;;;;;;;;;6265491;28;20515;-70
2021/10/04 09:06:02;;;;;;;29.95;19.38;;;;;;;;;;6270693;28;20185;-72
2021/10/04 09:09:05;;;;;;;26.98;17.75;;;;;;;;;;6288949;28;20186;-72
2021/10/04 09:12:11;;;;;;;25.45;18.08;;;;;;;;;;6285635;28;20511;-70
2021/10/04 09:15:23;;;;;;;28.08;17.48;;;;;;;;;;6275732;28;20067;-74
2021/10/04 09:18:27;;;;;;;22.15;16.27;;;;;;;;;;6281390;28;20686;-72
2021/10/04 09:21:29;;;;;;;26.13;17.25;;;;;;;;;;6275253;28;20163;-69
2021/10/04 09:24:30;;;;;;;25.92;17.98;;;;;;;;;;6278901;28;20131;-71
2021/10/04 09:27:35;;;;;;;28.75;18.27;;;;;;;;;;6275055;28;20135;-73
2021/10/04 09:30:38;;;;;;;25.45;18.20;;;;;;;;;;6279145;28;20048;-70
2021/10/04 09:33:58;;;;;;;23.50;17.58;;;;;;;;;;6281122;28;20044;-69
2021/10/04 09:37:00;;;;;;;27.25;18.80;;;;;;;;;;6281155;28;20135;-70
2021/10/04 09:40:03;;;;;;;26.05;18.65;;;;;;;;;;6289706;28;20048;-70
2021/10/04 09:43:09;;;;;;;29.60;17.77;;;;;;;;;;6276793;28;20040;-71
2021/10/04 09:46:11;;;;;;;30.13;18.02;;;;;;;;;;6276533;28;20045;-73
2021/10/04 09:49:13;;;;;;;30.10;19.65;;;;;;;;;;6285498;28;20056;-70
2021/10/04 09:52:14;;;;;;;30.70;19.63;;;;;;;;;;6286827;28;20052;-70
2021/10/04 09:55:27;;;;;;;27.58;18.00;;;;;;;;;;6292449;28;20051;-71
2021/10/04 09:58:32;;;;;;;29.83;19.37;;;;;;;;;;6285012;28;20178;-71
2021/10/04 10:01:35;;;;;;;25.55;18.63;;;;;;;;;;6285538;28;20545;-72
2021/10/04 10:04:37;;;;;;;29.35;19.10;;;;;;;;;;6301127;28;20039;-70
2021/10/04 10:07:39;;;;;;;28.13;19.10;;;;;;;;;;6280684;28;20048;-69
2021/10/04 10:10:42;;;;;;;26.35;18.25;;;;;;;;;;6287632;28;20190;-70
2021/10/04 10:13:45;;;;;;;28.85;19.20;;;;;;;;;;6279705;28;20374;-70
2021/10/04 10:16:51;;;;;;;27.27;19.52;;;;;;;;;;6276881;28;20536;-70
2021/10/04 10:19:54;;;;;;;27.40;19.55;;;;;;;;;;6285451;28;20139;-69
2021/10/04 10:22:56;;;;;;;27.75;19.08;;;;;;;;;;6280183;28;20117;-67
2021/10/04 10:25:58;;;;;;;26.10;18.48;;;;;;;;;;6285618;28;20052;-69
2021/10/04 10:29:23;;;;;;;28.40;18.33;;;;;;;;;;6285357;28;20669;-69
2021/10/04 10:32:36;;;;;;;27.77;19.13;;;;;;;;;;6280860;28;20078;-71
2021/10/04 10:35:51;;;;;;;27.75;18.90;;;;;;;;;;6284053;28;20276;-68
2021/10/04 10:39:01;;;;;;;30.55;18.45;;;;;;;;;;6293570;28;20732;-70
2021/10/04 10:42:11;;;;;;;27.45;16.92;;;;;;;;;;6284114;28;20062;-69
2021/10/04 10:45:18;;;;;;;24.17;17.50;;;;;;;;;;6292439;28;20404;-75
2021/10/04 10:48:40;;;;;;;27.85;17.80;;;;;;;;;;6281252;28;20060;-74
2021/10/04 10:52:11;;;;;;;32.90;18.98;;;;;;;;;;6280683;28;20052;-71
2021/10/04 10:55:30;;;;;;;61.42;40.67;;;;;;;;;;6287324;28;20057;-73
2021/10/04 10:58:33;;;;;;;36.70;21.88;;;;;;;;;;6291988;28;20033;-67
2021/10/04 11:01:36;;;;;;;34.80;22.30;;;;;;;;;;6280750;28;20076;-70
2021/10/04 11:04:41;;;;;;;37.40;21.70;;;;;;;;;;6288124;28;20045;-70
2021/10/04 11:07:57;;;;;;;65.15;44.67;;;;;;;;;;6274567;28;20561;-66
2021/10/04 11:11:23;;;;;;;102.28;71.90;;;;;;;;;;6286492;28;20049;-68
2021/10/04 11:14:25;;;;;;;129.95;91.30;;;;;;;;;;6269142;28;20117;-68
2021/10/04 11:17:57;;;;;;;41.05;24.67;;;;;;;;;;6279290;28;20040;-70
2021/10/04 11:21:02;;;;;;;97.13;74.70;;;;;;;;;;6286895;28;20052;-76
2021/10/04 11:24:05;;;;;;;31.40;23.02;;;;;;;;;;6283846;28;20683;-67
2021/10/04 11:27:07;;;;;;;29.70;19.38;;;;;;;;;;6287744;28;20078;-69
2021/10/04 11:30:09;;;;;;;31.48;20.00;;;;;;;;;;6290589;28;20045;-76
2021/10/04 11:33:12;;;;;;;39.63;21.45;;;;;;;;;;6279919;28;20117;-67
2021/10/04 11:36:15;;;;;;;45.78;34.53;;;;;;;;;;6289386;28;20087;-67
2021/10/04 11:39:19;;;;;;;81.90;71.00;;;;;;;;;;6289058;28;20127;-67
2021/10/04 11:42:24;;;;;;;31.45;23.55;;;;;;;;;;6284337;28;20060;-68
2021/10/04 11:45:26;;;;;;;28.30;19.05;;;;;;;;;;6278544;28;20047;-79
2021/10/04 11:48:30;;;;;;;30.00;20.70;;;;;;;;;;6286249;28;20071;-74
2021/10/04 11:51:34;;;;;;;30.35;19.70;;;;;;;;;;6285474;28;20078;-72
2021/10/04 11:54:40;;;;;;;30.85;20.60;;;;;;;;;;6298159;28;20048;-69
2021/10/04 11:57:42;;;;;;;32.80;21.70;;;;;;;;;;6288321;28;20677;-69
2021/10/04 12:00:45;;;;;;;32.45;22.63;;;;;;;;;;6288809;28;20044;-77
2021/10/04 12:03:58;;;;;;;;;;;;;;;;;;6296259;28;20048;-70
2021/10/04 12:06:59;;;;;;;32.25;20.70;;;;;;;;;;6274399;28;19927;-69
2021/10/04 12:10:01;;;;;;;27.55;20.50;;;;;;;;;;6292286;28;20048;-70
2021/10/04 12:13:03;;;;;;;30.70;20.10;;;;;;;;;;6284692;28;20502;-68
2021/10/04 12:16:06;;;;;;;31.92;20.75;;;;;;;;;;6281066;28;20124;-78
2021/10/04 12:19:09;;;;;;;30.88;20.75;;;;;;;;;;6286716;28;20066;-70
2021/10/04 12:22:11;;;;;;;36.38;21.40;;;;;;;;;;6286924;28;20109;-69
2021/10/04 12:25:25;;;;;;;27.27;20.40;;;;;;;;;;6288689;28;20129;-76
2021/10/04 12:28:27;;;;;;;33.88;21.42;;;;;;;;;;6281602;28;20048;-74
2021/10/04 12:31:32;;;;;;;28.25;19.65;;;;;;;;;;6275445;28;20052;-69
2021/10/04 12:34:35;;;;;;;31.27;18.95;;;;;;;;;;6298762;28;20450;-70
2021/10/04 12:37:38;;;;;;;28.42;18.38;;;;;;;;;;6281411;28;20150;-69
2021/10/04 12:40:45;;;;;;;27.17;18.23;;;;;;;;;;6287320;28;20049;-69
2021/10/04 12:43:48;;;;;;;27.83;18.25;;;;;;;;;;6299724;28;20044;-69
2021/10/04 12:47:05;;;;;;;26.77;18.17;;;;;;;;;;6288565;28;20048;-70
2021/10/04 12:50:08;;;;;;;24.58;18.55;;;;;;;;;;6279897;28;22001;-79
2021/10/04 12:53:12;;;;;;;25.88;17.38;;;;;;;;;;6284933;28;20131;-70
2021/10/04 12:56:13;;;;;;;27.38;18.15;;;;;;;;;;6287191;28;20449;-72
2021/10/04 12:59:15;;;;;;;25.63;17.50;;;;;;;;;;6291242;28;20044;-71
2021/10/04 13:02:20;;;;;;;28.20;18.27;;;;;;;;;;6282547;28;20052;-73
2021/10/04 13:05:23;;;;;;;26.40;17.75;;;;;;;;;;6284629;28;20159;-77
2021/10/04 13:08:25;;;;;;;25.70;18.27;;;;;;;;;;6288217;28;20048;-73
2021/10/04 13:11:27;;;;;;;25.27;17.35;;;;;;;;;;6285630;28;20053;-73
2021/10/04 13:14:29;;;;;;;22.63;14.75;;;;;;;;;;6292821;28;20157;-70
2021/10/04 13:17:31;;;;;;;24.80;14.88;;;;;;;;;;6278161;28;20049;-69
2021/10/04 13:20:34;;;;;;;22.80;15.38;;;;;;;;;;6286988;28;20040;-79
2021/10/04 13:23:36;;;;;;;18.48;13.52;;;;;;;;;;6296231;28;20493;-72
2021/10/04 13:26:38;;;;;;;19.00;12.93;;;;;;;;;;6295917;28;20055;-70
2021/10/04 13:29:39;;;;;;;16.90;12.40;;;;;;;;;;6298278;28;20048;-70
2021/10/04 13:32:41;;;;;;;17.13;12.85;;;;;;;;;;6289658;28;20059;-74
2021/10/04 13:35:44;;;;;;;22.58;13.25;;;;;;;;;;6289770;28;20048;-73
2021/10/04 13:38:46;;;;;;;20.88;13.10;;;;;;;;;;6295149;28;20048;-70
2021/10/04 13:41:48;;;;;;;18.83;11.95;;;;;;;;;;6301207;28;20493;-70
2021/10/04 13:44:50;;;;;;;15.00;11.38;;;;;;;;;;6293219;28;20119;-70
2021/10/04 13:47:52;;;;;;;14.73;11.30;;;;;;;;;;6283789;28;20041;-72
2021/10/04 13:50:55;;;;;;;18.23;11.60;;;;;;;;;;6284706;28;20210;-70
2021/10/04 13:53:57;;;;;;;20.13;11.57;;;;;;;;;;6289826;28;20045;-70
2021/10/04 13:56:59;;;;;;;18.92;10.68;;;;;;;;;;6282375;28;20127;-70
2021/10/04 14:00:00;;;;;;;20.52;10.63;;;;;;;;;;6295460;28;20044;-69
2021/10/04 14:03:02;;;;;;;17.58;10.10;;;;;;;;;;6276675;28;20041;-75
2021/10/04 14:06:06;;;;;;;17.90;9.70;;;;;;;;;;6287157;28;20717;-71
2021/10/04 14:09:08;;;;;;;16.60;9.30;;;;;;;;;;6295265;28;20066;-73
2021/10/04 14:12:09;;;;;;;12.80;8.02;;;;;;;;;;6286267;28;20056;-70
2021/10/04 14:15:12;;;;;;;14.18;8.95;;;;;;;;;;6290119;28;20416;-77
2021/10/04 14:18:13;;;;;;;12.80;8.25;;;;;;;;;;6281815;28;20127;-71
2021/10/04 14:21:16;;;;;;;14.93;8.40;;;;;;;;;;6287158;28;20044;-71
2021/10/04 14:24:18;;;;;;;15.67;8.53;;;;;;;;;;6295285;28;20189;-70
2021/10/04 14:27:19;;;;;;;12.15;7.03;;;;;;;;;;6284317;28;20171;-72
2021/10/04 14:30:22;;;;;;;15.18;8.65;;;;;;;;;;6291264;28;20181;-75
2021/10/04 14:33:26;;;;;;;12.45;8.27;;;;;;;;;;6283995;28;20074;-70
2021/10/04 14:36:29;;;;;;;12.32;8.80;;;;;;;;;;6285195;28;20048;-72
2021/10/04 14:39:30;;;;;;;14.15;8.90;;;;;;;;;;6288631;28;20037;-71
2021/10/04 14:42:32;;;;;;;15.32;9.35;;;;;;;;;;6291502;28;20052;-70
2021/10/04 14:45:34;;;;;;;14.68;9.13;;;;;;;;;;6292538;28;20831;-75
2021/10/04 14:48:36;;;;;;;16.20;9.57;;;;;;;;;;6292864;28;20595;-72
2021/10/04 14:51:39;;;;;;;12.85;9.15;;;;;;;;;;6287618;28;20060;-71
2021/10/04 14:54:41;;;;;;;14.07;9.32;;;;;;;;;;6296817;28;20628;-70
2021/10/04 14:57:45;;;;;;;10.55;8.65;;;;;;;;;;6290788;28;20075;-71
2021/10/04 15:00:47;;;;;;;12.02;8.13;;;;;;;;;;6289336;28;20048;-76
2021/10/04 15:03:49;;;;;;;12.95;7.97;;;;;;;;;;6295920;28;20101;-72
2021/10/04 15:06:52;;;;;;;8.82;6.63;;;;;;;;;;6289403;28;20057;-70
2021/10/04 15:09:53;;;;;;;11.60;6.77;;;;;;;;;;6296330;28;20193;-71
2021/10/04 15:12:55;;;;;;;9.65;7.50;;;;;;;;;;6291041;28;20117;-73
2021/10/04 15:15:57;;;;;;;10.00;7.38;;;;;;;;;;6280265;28;20048;-71
2021/10/04 15:18:58;;;;;;;10.38;7.13;;;;;;;;;;6290185;28;20471;-71
2021/10/04 15:22:01;;;;;;;9.25;6.53;;;;;;;;;;6291363;28;20511;-71
2021/10/04 15:25:03;;;;;;;8.17;6.73;;;;;;;;;;6296856;28;20131;-72
2021/10/04 15:28:06;;;;;;;12.30;7.45;;;;;;;;;;6292734;28;20127;-71
2021/10/04 15:31:07;;;;;;;9.25;6.25;;;;;;;;;;6286741;28;20732;-71
2021/10/04 15:34:09;;;;;;;9.63;6.45;;;;;;;;;;6295852;28;20116;-71
2021/10/04 15:37:12;;;;;;;7.93;6.20;;;;;;;;;;6286336;28;20350;-72
2021/10/04 15:40:14;;;;;;;10.65;6.32;;;;;;;;;;6284661;28;20037;-74
2021/10/04 15:43:16;;;;;;;8.35;5.70;;;;;;;;;;6289698;28;20573;-70
2021/10/04 15:46:18;;;;;;;8.18;5.50;;;;;;;;;;6282347;28;20481;-72
2021/10/04 15:49:20;;;;;;;8.60;5.20;;;;;;;;;;6289177;28;20040;-71
2021/10/04 15:52:26;;;;;;;8.68;5.35;;;;;;;;;;6282850;28;20067;-77
2021/10/04 15:55:28;;;;;;;8.73;5.18;;;;;;;;;;6284759;28;20105;-74
2021/10/04 15:58:30;;;;;;;7.07;4.95;;;;;;;;;;6281855;28;20049;-71
2021/10/04 16:01:32;;;;;;;7.35;4.95;;;;;;;;;;6280682;28;20392;-77
2021/10/04 16:04:33;;;;;;;6.93;5.22;;;;;;;;;;6292088;28;20142;-70
2021/10/04 16:07:39;;;;;;;7.75;4.72;;;;;;;;;;6289480;28;20048;-71
2021/10/04 16:10:42;;;;;;;7.35;5.25;;;;;;;;;;6280877;28;20392;-71
2021/10/04 16:13:43;;;;;;;9.30;5.07;;;;;;;;;;6295176;28;20400;-70
2021/10/04 16:16:45;;;;;;;7.68;5.40;;;;;;;;;;6280429;28;20048;-71
2021/10/04 16:19:48;;;;;;;8.15;5.55;;;;;;;;;;6292405;28;20048;-71
2021/10/04 16:22:51;;;;;;;7.60;5.07;;;;;;;;;;6281513;28;20185;-70
2021/10/04 16:25:53;;;;;;;8.43;5.13;;;;;;;;;;6286986;28;20037;-70
2021/10/04 16:28:55;;;;;;;10.48;5.63;;;;;;;;;;6302330;28;20055;-73
2021/10/04 16:31:56;;;;;;;11.15;6.72;;;;;;;;;;6285825;28;20069;-71
2021/10/04 16:34:58;;;;;;;10.43;6.53;;;;;;;;;;6286858;28;20055;-76
2021/10/04 16:38:01;;;;;;;8.30;6.00;;;;;;;;;;6293510;28;20044;-71
2021/10/04 16:41:03;;;;;;;9.38;6.60;;;;;;;;;;6292343;28;20041;-71
2021/10/04 16:44:05;;;;;;;10.75;5.72;;;;;;;;;;6295779;28;20044;-71
2021/10/04 16:47:07;;;;;;;9.18;5.80;;;;;;;;;;6285631;28;20086;-72
2021/10/04 16:50:09;;;;;;;8.63;6.00;;;;;;;;;;6302623;28;20143;-74
2021/10/04 16:53:13;;;;;;;7.55;5.97;;;;;;;;;;6308125;28;20067;-72
2021/10/04 16:56:15;;;;;;;8.95;5.85;;;;;;;;;;6308862;28;20095;-71
2021/10/04 16:59:16;;;;;;;9.18;5.82;;;;;;;;;;6300954;28;20076;-70
2021/10/04 17:02:18;;;;;;;7.88;5.20;;;;;;;;;;6287638;28;20178;-72
2021/10/04 17:05:19;;;;;;;10.38;5.72;;;;;;;;;;6293783;28;20435;-78
2021/10/04 17:08:22;;;;;;;8.48;5.20;;;;;;;;;;6298428;28;20122;-70
2021/10/04 17:11:24;;;;;;;9.52;6.05;;;;;;;;;;6291753;28;20045;-73
2021/10/04 17:14:26;;;;;;;7.63;5.60;;;;;;;;;;6294569;28;20067;-70
2021/10/04 17:17:28;;;;;;;11.73;5.72;;;;;;;;;;6280182;28;20644;-74
2021/10/04 17:20:30;;;;;;;5.93;4.40;;;;;;;;;;6288025;28;20040;-76
2021/10/04 17:23:33;;;;;;;7.55;3.90;;;;;;;;;;6294078;28;20078;-70
2021/10/04 17:26:34;;;;;;;4.60;3.63;;;;;;;;;;6287770;28;20133;-69
2021/10/04 17:29:36;;;;;;;8.32;5.90;;;;;;;;;;6307962;28;20452;-70
2021/10/04 17:32:38;;;;;;;10.52;7.70;;;;;;;;;;6279264;28;20065;-70
2021/10/04 17:35:39;;;;;;;14.13;9.40;;;;;;;;;;6298434;28;20132;-70
2021/10/04 17:38:42;;;;;;;14.10;10.40;;;;;;;;;;6313162;28;20517;-74
2021/10/04 17:41:44;;;;;;;16.37;11.00;;;;;;;;;;6276079;28;20562;-70
2021/10/04 17:44:46;;;;;;;15.27;11.05;;;;;;;;;;6284758;28;20048;-70
2021/10/04 17:47:48;;;;;;;18.65;12.32;;;;;;;;;;6268563;28;20752;-70
2021/10/04 17:50:49;;;;;;;16.17;10.40;;;;;;;;;;6274322;28;20179;-69